LIEO/OLB METAR and TAF weather

Enter ICAO airport designator
Station Type Date Time Source
LIEO METAR 2020/04/06 10:20 UTC NOAA

LIEO 061020Z 04006KT 330V080 CAVOK 19/05 Q1024


Station Type Date Time Source
LIEO Decoded METAR 2020/04/06 10:20 UTC NOAA

Olbia / Costa Smeralda, Italy (LIEO) 40-54N 009-31E 13M
Apr 06, 2020 - 06:20 AM EDT / 2020.04.06 1020 UTC
Wind: from the NE (040 degrees) at 7 MPH (6 KT) (direction variable):0
Visibility: greater than 7 mile(s):0
Temperature: 66 F (19 C)
Dew Point: 41 F (5 C)
Relative Humidity: 39%
Pressure (altimeter): 30.24 in. Hg (1024 hPa)
ob: LIEO 061020Z 04006KT 330V080 CAVOK 19/05 Q1024
cycle: 10

Station Type Date Time Source
LIEO TAF 2020/04/06 06:39 UTC NOAA

TAF LIEO 060530Z 0606/0706 VRB05KT 9999 SCT035
BECMG 0607/0609 04012KT

Example: see airport list